Time;durP1;ratioP1;P1;durP2;ratioP2;P2;SDS_P1;SDS_P2;PMS_P1;PMS_P2;Temp;Humidity;BMP_temperature;BMP_pressure;BME280_temperature;BME280_humidity;BME280_pressure;Samples;Min_cycle;Max_cycle;Signal;HPM_P1;HPM_P2
2023/04/06 00:01:01;;;;;;;13.32;6.75;;;4.20;99.90;;;;;;4991455;28;20396;-63
2023/04/06 00:03:26;;;;;;;10.73;6.55;;;4.20;99.90;;;;;;4990908;28;20034;-63
2023/04/06 00:05:52;;;;;;;9.55;6.30;;;4.10;99.90;;;;;;4988741;28;20089;-63
2023/04/06 00:08:18;;;;;;;10.48;6.38;;;4.10;99.90;;;;;;4984477;28;20030;-63
2023/04/06 00:10:43;;;;;;;10.80;6.47;;;4.10;99.90;;;;;;4972340;28;20042;-63
2023/04/06 00:13:09;;;;;;;11.45;6.45;;;4.10;99.90;;;;;;4990192;28;20030;-63
2023/04/06 00:15:35;;;;;;;9.10;6.65;;;4.10;99.90;;;;;;4987136;28;20075;-63
2023/04/06 00:18:01;;;;;;;9.35;6.57;;;4.00;99.90;;;;;;4990334;28;20499;-63
2023/04/06 00:20:27;;;;;;;11.35;6.28;;;4.00;99.90;;;;;;4990559;28;20034;-63
2023/04/06 00:22:53;;;;;;;13.18;7.28;;;4.00;99.90;;;;;;4990099;28;20031;-63
2023/04/06 00:25:19;;;;;;;12.00;7.18;;;4.00;99.90;;;;;;4988281;28;20485;-63
2023/04/06 00:27:44;;;;;;;10.07;6.65;;;4.00;99.90;;;;;;4971836;28;20117;-63
2023/04/06 00:30:10;;;;;;;10.27;6.75;;;4.00;99.90;;;;;;4990766;28;20030;-63
2023/04/06 00:32:36;;;;;;;10.68;6.82;;;3.90;99.90;;;;;;4989943;28;20556;-64
2023/04/06 00:35:05;;;;;;;11.13;7.28;;;3.90;99.90;;;;;;4990126;28;20504;-63
2023/04/06 00:37:31;;;;;;;9.00;6.70;;;3.90;99.90;;;;;;4989977;28;20062;-63
2023/04/06 00:39:57;;;;;;;11.27;6.95;;;3.90;99.90;;;;;;4986609;28;20066;-64
2023/04/06 00:42:26;;;;;;;15.48;7.93;;;3.90;99.90;;;;;;4991702;28;20073;-63
2023/04/06 00:44:56;;;;;;;12.30;7.07;;;3.80;99.90;;;;;;4972592;28;20042;-63
2023/04/06 00:47:24;;;;;;;11.73;7.00;;;3.80;99.90;;;;;;4991487;28;20108;-63
2023/04/06 00:49:50;;;;;;;10.80;6.90;;;3.80;99.90;;;;;;4972103;28;20129;-63
2023/04/06 00:52:16;;;;;;;11.07;6.97;;;3.80;99.90;;;;;;4990379;28;20165;-63
2023/04/06 00:54:41;;;;;;;12.20;7.80;;;3.80;99.90;;;;;;4971153;28;20042;-63
2023/04/06 00:57:07;;;;;;;12.38;7.07;;;3.70;99.90;;;;;;4989957;28;20531;-63
2023/04/06 00:59:32;;;;;;;13.20;7.43;;;3.70;99.90;;;;;;4990326;28;20515;-63
2023/04/06 01:01:58;;;;;;;10.48;6.97;;;3.70;99.90;;;;;;4990334;28;20038;-63
2023/04/06 01:04:24;;;;;;;10.68;7.05;;;3.70;99.90;;;;;;4992296;28;20507;-63
2023/04/06 01:06:50;;;;;;;11.55;7.50;;;3.70;99.90;;;;;;4993418;28;20035;-63
2023/04/06 01:09:18;;;;;;;11.43;6.78;;;3.70;99.90;;;;;;4992804;28;20110;-63
2023/04/06 01:11:44;;;;;;;13.27;7.10;;;3.60;99.90;;;;;;4992972;28;20455;-63
2023/04/06 01:14:10;;;;;;;11.93;7.78;;;3.60;99.90;;;;;;4975678;28;20125;-63
2023/04/06 01:16:36;;;;;;;10.63;7.40;;;3.60;99.90;;;;;;4975822;28;20082;-63
2023/04/06 01:19:10;;;;;;;12.00;7.20;;;3.60;99.90;;;;;;4993517;28;20152;-63
2023/04/06 01:21:39;;;;;;;12.02;7.18;;;3.50;99.90;;;;;;4993286;28;20095;-64
2023/04/06 01:24:05;;;;;;;10.98;7.13;;;3.50;99.90;;;;;;4989149;28;20038;-64
2023/04/06 01:26:31;;;;;;;13.68;7.65;;;3.50;99.90;;;;;;4993325;28;20038;-64
2023/04/06 01:28:57;;;;;;;10.48;7.18;;;3.50;99.90;;;;;;4974943;28;20169;-63
2023/04/06 01:31:23;;;;;;;10.55;7.22;;;3.50;99.90;;;;;;4993488;28;20109;-63
2023/04/06 01:33:49;;;;;;;10.27;6.80;;;3.50;99.90;;;;;;4975501;28;20038;-63
2023/04/06 01:36:15;;;;;;;10.68;7.18;;;3.50;99.90;;;;;;4992391;28;20053;-64
2023/04/06 01:38:41;;;;;;;12.80;7.18;;;3.40;99.90;;;;;;4980178;28;20050;-63
2023/04/06 01:41:07;;;;;;;10.55;7.20;;;3.40;99.90;;;;;;4993328;28;20030;-63
2023/04/06 01:43:32;;;;;;;14.98;7.72;;;3.40;99.90;;;;;;4992764;28;20587;-63
2023/04/06 01:45:58;;;;;;;12.70;7.43;;;3.40;99.90;;;;;;4992550;28;20114;-63
2023/04/06 01:48:24;;;;;;;9.77;7.15;;;3.40;99.90;;;;;;4993001;28;20042;-63
2023/04/06 01:50:49;;;;;;;11.32;7.13;;;3.40;99.90;;;;;;4991927;28;20061;-63
2023/04/06 01:53:15;;;;;;;12.85;7.30;;;3.40;99.90;;;;;;4992517;28;20496;-64
2023/04/06 01:55:41;;;;;;;11.45;7.45;;;3.30;99.90;;;;;;4984636;28;20053;-63
2023/04/06 01:58:06;;;;;;;12.82;7.93;;;3.30;99.90;;;;;;4992568;28;20034;-63
2023/04/06 02:00:32;;;;;;;11.05;7.35;;;3.30;99.90;;;;;;4992975;28;20556;-63
2023/04/06 02:02:57;;;;;;;11.35;6.85;;;3.30;99.90;;;;;;4992313;28;20045;-64
2023/04/06 02:05:23;;;;;;;12.63;7.70;;;3.30;99.90;;;;;;4991915;28;20037;-63
2023/04/06 02:07:49;;;;;;;12.52;7.60;;;3.30;99.90;;;;;;4992199;28;20050;-64
2023/04/06 02:10:15;;;;;;;11.15;7.70;;;3.30;99.90;;;;;;4990854;28;20031;-64
2023/04/06 02:12:40;;;;;;;10.35;7.03;;;3.20;99.90;;;;;;4974706;28;20090;-64
2023/04/06 02:15:06;;;;;;;12.15;7.47;;;3.20;99.90;;;;;;4991148;28;20077;-64
2023/04/06 02:17:32;;;;;;;10.55;7.53;;;3.20;99.90;;;;;;4974607;28;20042;-63
2023/04/06 02:19:57;;;;;;;12.40;7.75;;;3.20;99.90;;;;;;4991679;28;20039;-63
2023/04/06 02:22:23;;;;;;;9.55;6.68;;;3.20;99.90;;;;;;4987805;28;20030;-63
2023/04/06 02:24:49;;;;;;;12.02;7.55;;;3.20;99.90;;;;;;4992287;28;20035;-64
2023/04/06 02:27:15;;;;;;;12.48;7.70;;;3.20;99.90;;;;;;4992052;28;20101;-64
2023/04/06 02:29:40;;;;;;;11.52;7.47;;;3.20;99.90;;;;;;4992449;28;20164;-63
2023/04/06 02:32:06;;;;;;;11.48;7.45;;;3.20;99.90;;;;;;4992022;28;20481;-63
2023/04/06 02:34:32;;;;;;;12.20;7.47;;;3.10;99.90;;;;;;4991345;28;20046;-63
2023/04/06 02:36:58;;;;;;;11.80;7.15;;;3.10;99.90;;;;;;4973967;28;20064;-64
2023/04/06 02:39:23;;;;;;;11.90;7.03;;;3.10;99.90;;;;;;4975081;28;20040;-64
2023/04/06 02:41:49;;;;;;;13.40;7.32;;;3.10;99.90;;;;;;4992334;28;20143;-63
2023/04/06 02:44:15;;;;;;;11.30;7.35;;;3.10;99.90;;;;;;4991715;28;20477;-64
2023/04/06 02:46:40;;;;;;;10.70;7.05;;;3.10;99.90;;;;;;4991524;28;20045;-64
2023/04/06 02:49:06;;;;;;;14.38;7.70;;;3.10;99.90;;;;;;4990695;28;20041;-64
2023/04/06 02:51:31;;;;;;;12.57;7.72;;;3.10;99.90;;;;;;4991470;28;20045;-63
2023/04/06 02:53:57;;;;;;;14.93;7.53;;;3.10;99.90;;;;;;4991060;28;20497;-63
2023/04/06 02:56:22;;;;;;;11.90;8.18;;;3.10;99.90;;;;;;4989761;28;20088;-64
2023/04/06 02:58:48;;;;;;;15.68;8.02;;;3.00;99.90;;;;;;4991810;28;20125;-64
2023/04/06 03:01:14;;;;;;;13.25;7.80;;;3.00;99.90;;;;;;4991508;28;20159;-63
2023/04/06 03:03:40;;;;;;;11.40;7.20;;;3.00;99.90;;;;;;4984068;28;20409;-64
2023/04/06 03:06:06;;;;;;;12.88;7.68;;;3.00;99.90;;;;;;4987455;28;20026;-64
2023/04/06 03:08:31;;;;;;;11.95;7.85;;;3.00;99.90;;;;;;4991924;28;20037;-63
2023/04/06 03:10:57;;;;;;;11.55;7.55;;;3.00;99.90;;;;;;4992071;28;20034;-63
2023/04/06 03:13:22;;;;;;;12.23;8.05;;;3.00;99.90;;;;;;4991532;28;20328;-63
2023/04/06 03:15:48;;;;;;;12.93;7.95;;;3.30;99.90;;;;;;4997849;28;20038;-65
2023/04/06 03:18:13;;;;;;;13.27;7.70;;;2.90;99.90;;;;;;4991179;28;20037;-64
2023/04/06 03:20:39;;;;;;;12.85;8.38;;;2.90;99.90;;;;;;4973603;28;20489;-65
2023/04/06 03:23:05;;;;;;;12.00;7.13;;;2.90;99.90;;;;;;4982049;28;20661;-65
2023/04/06 03:25:31;;;;;;;10.45;7.32;;;2.90;99.90;;;;;;4972986;28;20050;-66
2023/04/06 03:27:57;;;;;;;12.30;7.50;;;2.90;99.90;;;;;;4991074;28;20397;-65
2023/04/06 03:30:22;;;;;;;11.70;7.85;;;2.90;99.90;;;;;;4991035;28;20042;-65
2023/04/06 03:32:48;;;;;;;13.88;8.02;;;2.80;99.90;;;;;;4973175;28;20046;-62
2023/04/06 03:35:13;;;;;;;12.85;7.22;;;2.80;99.90;;;;;;4990372;28;20038;-65
2023/04/06 03:37:39;;;;;;;12.68;7.97;;;2.80;99.90;;;;;;4991174;28;20069;-65
2023/04/06 03:40:05;;;;;;;14.15;7.18;;;2.80;99.90;;;;;;4991145;28;20377;-65
2023/04/06 03:42:32;;;;;;;13.25;7.78;;;2.80;99.90;;;;;;4990825;28;20038;-64
2023/04/06 03:44:58;;;;;;;10.80;7.30;;;2.80;99.90;;;;;;4991025;28;20149;-65
2023/04/06 03:47:24;;;;;;;13.02;8.10;;;2.80;99.90;;;;;;4989803;28;20081;-65
2023/04/06 03:49:50;;;;;;;11.68;7.80;;;2.80;99.90;;;;;;4990597;28;20132;-65
2023/04/06 03:52:15;;;;;;;13.35;8.05;;;2.80;99.90;;;;;;4990532;28;20529;-65
2023/04/06 03:54:41;;;;;;;13.85;7.75;;;2.80;99.90;;;;;;4996330;28;20205;-65
2023/04/06 03:57:06;;;;;;;13.10;8.02;;;2.80;99.90;;;;;;4990767;28;20033;-63
2023/04/06 03:59:32;;;;;;;11.32;7.45;;;2.80;99.90;;;;;;4988348;28;20131;-65
2023/04/06 04:01:57;;;;;;;12.40;8.07;;;2.80;99.90;;;;;;4990183;28;20035;-65
2023/04/06 04:04:23;;;;;;;12.55;8.07;;;2.80;99.90;;;;;;4989787;28;20573;-64
2023/04/06 04:06:49;;;;;;;12.10;8.13;;;2.80;99.90;;;;;;4990101;28;20405;-66
2023/04/06 04:09:14;;;;;;;13.27;8.50;;;2.80;99.90;;;;;;4972588;28;20245;-65
2023/04/06 04:11:40;;;;;;;14.13;8.60;;;2.80;99.90;;;;;;4973482;28;20100;-64
2023/04/06 04:14:06;;;;;;;14.15;8.80;;;2.70;99.90;;;;;;4990647;28;20045;-65
2023/04/06 04:16:31;;;;;;;12.65;8.05;;;2.70;99.90;;;;;;4989308;28;20416;-61
2023/04/06 04:18:58;;;;;;;13.82;8.70;;;2.70;99.90;;;;;;4973172;28;20038;-64
2023/04/06 04:21:25;;;;;;;13.30;8.70;;;2.70;99.90;;;;;;4989174;28;20041;-65
2023/04/06 04:23:54;;;;;;;16.05;8.27;;;2.70;99.90;;;;;;4989747;28;20038;-63
2023/04/06 04:26:19;;;;;;;12.10;7.95;;;2.70;99.90;;;;;;4987846;28;20034;-64
2023/04/06 04:28:45;;;;;;;14.10;8.63;;;2.70;99.90;;;;;;4990350;28;20034;-65
2023/04/06 04:31:11;;;;;;;15.05;8.73;;;2.70;99.90;;;;;;4975071;28;20042;-65
2023/04/06 04:33:36;;;;;;;13.88;8.57;;;2.70;99.90;;;;;;4989465;28;20554;-64
2023/04/06 04:36:02;;;;;;;16.95;8.93;;;2.70;99.90;;;;;;4992560;28;20560;-62
2023/04/06 04:38:27;;;;;;;13.85;8.68;;;2.70;99.90;;;;;;4991268;28;20532;-65
2023/04/06 04:40:53;;;;;;;13.18;8.88;;;2.70;99.90;;;;;;4994065;28;20042;-64
2023/04/06 04:43:18;;;;;;;14.20;8.93;;;2.70;99.90;;;;;;4993852;28;20070;-64
2023/04/06 04:45:44;;;;;;;15.50;9.05;;;2.70;99.90;;;;;;4993615;28;20041;-63
2023/04/06 04:48:10;;;;;;;14.27;8.23;;;2.70;99.90;;;;;;4973990;28;20062;-66
2023/04/06 04:50:35;;;;;;;14.45;8.27;;;2.70;99.90;;;;;;4991297;28;20061;-65
2023/04/06 04:53:01;;;;;;;16.08;9.15;;;2.60;99.90;;;;;;4993951;28;20042;-64
2023/04/06 04:55:27;;;;;;;18.23;9.23;;;2.60;99.90;;;;;;4993894;28;20485;-64
2023/04/06 04:57:52;;;;;;;14.60;8.95;;;2.70;99.90;;;;;;4993557;28;20049;-63
2023/04/06 05:00:19;;;;;;;16.65;8.57;;;2.60;99.90;;;;;;4994118;28;20027;-66
2023/04/06 05:02:45;;;;;;;15.27;9.57;;;2.60;99.90;;;;;;4992076;28;20386;-65
2023/04/06 05:05:10;;;;;;;15.20;9.02;;;2.60;99.90;;;;;;4990013;28;20046;-62
2023/04/06 05:07:36;;;;;;;13.18;8.98;;;2.60;99.90;;;;;;4969571;28;20049;-65
2023/04/06 05:10:01;;;;;;;14.10;9.15;;;2.60;99.90;;;;;;4972634;28;20040;-65
2023/04/06 05:12:28;;;;;;;13.38;8.98;;;2.60;99.90;;;;;;4975770;28;20042;-64
2023/04/06 05:14:54;;;;;;;14.88;8.80;;;2.60;99.90;;;;;;4990703;28;20448;-63
2023/04/06 05:17:20;;;;;;;16.85;9.80;;;2.60;99.90;;;;;;4973532;28;20039;-65
2023/04/06 05:19:46;;;;;;;13.77;9.50;;;2.60;99.90;;;;;;4992380;28;20038;-65
2023/04/06 05:22:13;;;;;;;20.13;9.93;;;2.60;99.90;;;;;;4990992;28;20113;-65
2023/04/06 05:24:40;;;;;;;13.88;9.18;;;2.60;99.90;;;;;;4995478;28;20050;-62
2023/04/06 05:27:05;;;;;;;15.18;9.13;;;2.60;99.90;;;;;;4990209;28;20485;-63
2023/04/06 05:29:31;;;;;;;17.20;9.90;;;2.60;99.90;;;;;;4982725;28;20050;-66
2023/04/06 05:31:56;;;;;;;15.38;9.65;;;2.60;99.90;;;;;;4994657;28;20038;-66
2023/04/06 05:34:22;;;;;;;16.20;9.25;;;2.70;99.90;;;;;;4993362;28;20053;-65
2023/04/06 05:36:48;;;;;;;20.08;10.48;;;2.70;99.90;;;;;;4995633;28;20038;-65
2023/04/06 05:39:13;;;;;;;16.10;9.80;;;2.70;99.90;;;;;;5002853;28;20046;-66
2023/04/06 05:41:39;;;;;;;14.15;9.38;;;2.70;99.90;;;;;;4997282;28;20081;-66
2023/04/06 05:44:04;;;;;;;19.40;10.68;;;2.70;99.90;;;;;;4992971;28;20042;-66
2023/04/06 05:46:30;;;;;;;16.13;10.13;;;2.70;99.90;;;;;;4992888;28;20039;-64
2023/04/06 05:48:56;;;;;;;18.30;12.23;;;2.70;99.90;;;;;;4993046;28;20038;-66
2023/04/06 05:51:21;;;;;;;20.42;13.65;;;2.70;99.90;;;;;;4975761;28;20045;-65
2023/04/06 05:53:47;;;;;;;19.40;13.57;;;2.70;99.90;;;;;;4992692;28;20042;-65
2023/04/06 05:56:12;;;;;;;18.08;12.25;;;2.70;99.90;;;;;;4988510;28;20034;-65
2023/04/06 05:58:38;;;;;;;17.92;11.20;;;2.70;99.90;;;;;;4997496;28;20077;-66
2023/04/06 06:01:04;;;;;;;15.15;9.85;;;2.70;99.90;;;;;;4991701;28;20508;-66
2023/04/06 06:03:30;;;;;;;16.58;10.75;;;2.80;99.90;;;;;;4989378;28;20042;-66
2023/04/06 06:06:03;;;;;;;17.70;11.85;;;2.80;99.90;;;;;;4975412;28;20037;-66
2023/04/06 06:08:30;;;;;;;21.77;12.48;;;2.80;99.90;;;;;;4972167;28;20113;-66
2023/04/06 06:10:56;;;;;;;23.15;15.18;;;2.90;99.90;;;;;;4991751;28;20049;-66
2023/04/06 06:13:22;;;;;;;26.63;15.55;;;2.90;99.90;;;;;;4989618;28;20042;-66
2023/04/06 06:15:48;;;;;;;21.17;13.23;;;2.90;99.90;;;;;;4988556;28;20486;-66
2023/04/06 06:18:14;;;;;;;19.33;11.70;;;2.90;99.90;;;;;;4992860;28;20045;-65
2023/04/06 06:20:39;;;;;;;18.83;11.20;;;2.90;99.90;;;;;;4991729;28;20040;-66
2023/04/06 06:23:05;;;;;;;16.80;9.93;;;3.00;99.90;;;;;;4999527;28;20124;-63
2023/04/06 06:25:30;;;;;;;16.45;10.27;;;3.00;99.90;;;;;;4991682;28;20030;-66
2023/04/06 06:27:56;;;;;;;16.38;10.23;;;3.10;99.90;;;;;;4992673;28;20030;-66
2023/04/06 06:30:22;;;;;;;18.85;10.60;;;3.10;99.90;;;;;;4992326;28;20044;-65
2023/04/06 06:32:48;;;;;;;17.35;10.13;;;3.20;99.90;;;;;;4995070;28;20124;-65
2023/04/06 06:35:13;;;;;;;17.95;11.60;;;3.20;99.90;;;;;;4995365;28;20093;-64
2023/04/06 06:37:39;;;;;;;19.38;11.20;;;3.20;99.90;;;;;;4992610;28;20421;-66
2023/04/06 06:40:05;;;;;;;17.92;10.57;;;3.30;99.90;;;;;;4991494;28;20511;-66
2023/04/06 06:42:31;;;;;;;18.95;12.25;;;3.30;99.90;;;;;;4992366;28;20421;-66
2023/04/06 06:44:57;;;;;;;16.40;10.77;;;3.40;99.90;;;;;;4984027;28;20064;-66
2023/04/06 06:47:22;;;;;;;18.13;11.38;;;3.40;99.90;;;;;;4991841;28;20042;-66
2023/04/06 06:49:48;;;;;;;15.45;10.77;;;3.50;99.90;;;;;;4992012;28;20035;-65
2023/04/06 06:52:14;;;;;;;20.27;11.45;;;3.50;99.90;;;;;;4973049;28;20080;-66
2023/04/06 06:54:40;;;;;;;18.83;12.18;;;3.60;99.90;;;;;;4982983;28;20112;-65
2023/04/06 06:57:05;;;;;;;18.98;10.98;;;3.60;99.90;;;;;;4991890;28;20270;-66
2023/04/06 06:59:31;;;;;;;18.45;11.35;;;3.70;99.90;;;;;;4991783;28;20336;-65
2023/04/06 07:01:56;;;;;;;22.17;12.45;;;3.70;99.90;;;;;;4990507;28;20035;-65
2023/04/06 07:04:22;;;;;;;22.10;12.93;;;3.70;99.90;;;;;;4991673;28;20070;-66
2023/04/06 07:06:47;;;;;;;20.70;13.05;;;3.80;99.90;;;;;;4991308;28;20039;-66
2023/04/06 07:09:13;;;;;;;22.45;12.07;;;3.80;99.90;;;;;;4991459;28;20038;-65
2023/04/06 07:11:38;;;;;;;18.48;12.02;;;3.90;99.90;;;;;;4991732;28;20035;-64
2023/04/06 07:14:04;;;;;;;21.05;12.75;;;3.90;99.90;;;;;;4991470;28;20409;-66
2023/04/06 07:16:30;;;;;;;22.08;12.93;;;4.00;99.90;;;;;;4989751;28;20038;-66
2023/04/06 07:18:55;;;;;;;20.20;12.52;;;4.00;99.90;;;;;;4991586;28;20487;-66
2023/04/06 07:21:21;;;;;;;18.83;12.25;;;4.10;99.90;;;;;;4974460;28;20508;-66
2023/04/06 07:23:47;;;;;;;18.95;11.82;;;4.10;99.90;;;;;;4974154;28;20046;-64
2023/04/06 07:26:13;;;;;;;20.58;11.18;;;4.20;99.90;;;;;;4995135;28;20033;-65
2023/04/06 07:28:39;;;;;;;19.85;12.02;;;4.20;99.90;;;;;;4993673;28;20481;-64
2023/04/06 07:31:05;;;;;;;19.52;11.35;;;4.30;99.90;;;;;;4973456;28;20116;-64
2023/04/06 07:33:30;;;;;;;18.85;12.32;;;4.40;99.90;;;;;;4991791;28;20192;-66
2023/04/06 07:35:58;;;;;;;19.70;11.65;;;5.20;99.90;;;;;;4990901;28;20034;-66
2023/04/06 07:38:23;;;;;;;21.38;12.02;;;4.50;99.90;;;;;;4990779;28;20048;-66
2023/04/06 07:40:49;;;;;;;21.25;12.90;;;4.60;99.90;;;;;;4976567;28;20125;-66
2023/04/06 07:43:15;;;;;;;19.40;12.25;;;4.70;99.90;;;;;;4991136;28;20038;-66
2023/04/06 07:45:41;;;;;;;20.85;12.77;;;4.80;99.90;;;;;;4990007;28;20045;-66
2023/04/06 07:48:06;;;;;;;20.38;12.82;;;4.90;99.90;;;;;;4991095;28;20038;-65
2023/04/06 07:50:32;;;;;;;20.75;11.95;;;5.00;99.90;;;;;;4990919;28;20069;-65
2023/04/06 07:52:57;;;;;;;21.67;12.73;;;5.10;99.90;;;;;;4991101;28;20121;-66
2023/04/06 07:55:23;;;;;;;19.52;12.45;;;5.20;99.90;;;;;;4973288;28;20382;-66
2023/04/06 07:57:48;;;;;;;19.35;12.98;;;5.30;99.90;;;;;;4987671;28;20034;-65
2023/04/06 08:00:14;;;;;;;20.25;12.68;;;5.30;99.90;;;;;;4985171;28;20143;-66
2023/04/06 08:02:40;;;;;;;21.38;13.45;;;5.40;99.90;;;;;;4989521;28;20129;-65
2023/04/06 08:05:06;;;;;;;24.42;12.30;;;5.50;99.90;;;;;;4973159;28;20041;-66
2023/04/06 08:07:32;;;;;;;21.70;12.80;;;5.60;99.90;;;;;;4973282;28;20058;-64
2023/04/06 08:09:58;;;;;;;20.35;12.13;;;5.70;99.90;;;;;;4973556;28;20046;-66
2023/04/06 08:12:23;;;;;;;18.30;12.68;;;5.80;99.90;;;;;;4988282;28;20113;-65
2023/04/06 08:14:49;;;;;;;18.70;12.30;;;5.90;99.90;;;;;;4989933;28;20077;-66
2023/04/06 08:17:15;;;;;;;19.08;12.63;;;6.10;99.90;;;;;;4973817;28;20192;-66
2023/04/06 08:19:43;;;;;;;22.83;12.30;;;6.20;99.90;;;;;;4992895;28;20034;-63
2023/04/06 08:22:09;;;;;;;18.85;11.80;;;6.30;99.90;;;;;;4990711;28;20031;-66
2023/04/06 08:24:35;;;;;;;23.17;12.70;;;6.40;99.90;;;;;;4990246;28;20045;-65
2023/04/06 08:27:01;;;;;;;19.42;12.38;;;6.50;99.90;;;;;;4989442;28;20093;-65
2023/04/06 08:29:26;;;;;;;23.25;12.45;;;6.60;99.90;;;;;;4972987;28;20044;-66
2023/04/06 08:31:52;;;;;;;22.55;12.57;;;6.70;99.90;;;;;;4990720;28;20298;-66
2023/04/06 08:34:18;;;;;;;19.95;12.10;;;6.90;99.90;;;;;;4990556;28;20034;-65
2023/04/06 08:36:43;;;;;;;22.73;13.18;;;7.10;99.90;;;;;;4990432;28;20046;-66
2023/04/06 08:39:09;;;;;;;21.17;13.50;;;7.20;99.90;;;;;;4990824;28;20396;-66
2023/04/06 08:41:35;;;;;;;21.27;12.60;;;7.40;99.90;;;;;;4989872;28;20117;-66
2023/04/06 08:44:02;;;;;;;20.60;13.60;;;7.50;99.90;;;;;;4972934;28;20503;-66
2023/04/06 08:46:30;;;;;;;19.85;13.60;;;7.60;99.90;;;;;;4990359;28;20042;-66
2023/04/06 08:49:03;;;;;;;21.75;14.65;;;7.40;99.90;;;;;;4990291;28;20508;-65
2023/04/06 08:51:30;;;;;;;21.13;13.63;;;7.90;99.90;;;;;;4990506;28;20034;-65
2023/04/06 08:53:59;;;;;;;24.23;13.20;;;8.10;99.90;;;;;;4972270;28;20061;-65
2023/04/06 08:56:26;;;;;;;22.52;14.07;;;8.10;99.90;;;;;;4989984;28;20129;-65
2023/04/06 08:58:53;;;;;;;22.38;13.80;;;8.20;99.90;;;;;;4990180;28;20046;-65
2023/04/06 09:01:23;;;;;;;21.83;14.07;;;8.30;99.90;;;;;;4985458;28;20031;-65
2023/04/06 09:03:50;;;;;;;20.40;13.48;;;8.30;99.90;;;;;;4972649;28;20050;-65
2023/04/06 09:06:16;;;;;;;28.23;14.20;;;8.40;99.90;;;;;;4989615;28;20034;-65
2023/04/06 09:08:42;;;;;;;23.10;14.23;;;8.50;99.90;;;;;;4972353;28;20058;-65
2023/04/06 09:11:08;;;;;;;24.35;13.80;;;8.60;99.90;;;;;;4988951;28;20047;-65
2023/04/06 09:13:48;;;;;;;22.35;14.45;;;8.70;99.90;;;;;;4972574;28;20085;-64
2023/04/06 09:16:15;;;;;;;21.65;13.88;;;8.80;99.90;;;;;;4995696;28;20034;-64
2023/04/06 09:18:40;;;;;;;25.48;14.73;;;9.00;99.90;;;;;;4990485;28;20493;-66
2023/04/06 09:21:08;;;;;;;28.27;14.52;;;9.20;99.90;;;;;;4972674;28;20053;-66
2023/04/06 09:23:34;;;;;;;22.08;13.80;;;9.30;99.90;;;;;;4989188;28;20134;-66
2023/04/06 09:26:13;;;;;;;26.58;14.88;;;9.40;99.90;;;;;;4992546;28;20117;-66
2023/04/06 09:28:42;;;;;;;23.30;14.70;;;9.50;99.90;;;;;;4993644;28;20043;-66
2023/04/06 09:31:09;;;;;;;24.50;15.23;;;9.70;99.90;;;;;;4993946;28;20057;-66
2023/04/06 09:33:41;;;;;;;26.02;15.20;;;9.70;99.90;;;;;;4975513;28;20125;-66
2023/04/06 09:36:09;;;;;;;24.67;14.50;;;9.90;99.90;;;;;;4975947;28;20044;-64
2023/04/06 09:38:50;;;;;;;23.77;15.75;;;10.00;99.90;;;;;;4975237;28;20054;-64
2023/04/06 09:41:22;;;;;;;22.58;15.40;;;10.00;99.90;;;;;;4994322;28;20046;-66
2023/04/06 09:43:47;;;;;;;25.85;15.70;;;10.10;99.90;;;;;;4998184;28;20054;-66
2023/04/06 09:46:14;;;;;;;26.42;16.17;;;10.20;99.90;;;;;;4993168;28;20042;-66
2023/04/06 09:48:40;;;;;;;26.17;15.68;;;10.30;99.90;;;;;;4993621;28;20125;-66
2023/04/06 09:51:08;;;;;;;21.83;14.82;;;10.40;99.90;;;;;;4998911;28;20485;-65
2023/04/06 09:53:37;;;;;;;29.40;16.38;;;10.40;99.90;;;;;;4988522;28;20057;-65
2023/04/06 09:56:04;;;;;;;26.33;16.00;;;10.40;99.90;;;;;;4991675;28;20404;-66
2023/04/06 09:58:35;;;;;;;26.20;15.75;;;10.50;99.80;;;;;;4975714;28;20061;-66
2023/04/06 10:01:11;;;;;;;25.23;16.42;;;10.50;99.60;;;;;;4975429;28;20164;-66
2023/04/06 10:03:58;;;;;;;23.25;15.52;;;10.40;99.10;;;;;;4975318;28;20054;-66
2023/04/06 10:06:28;;;;;;;27.33;15.82;;;10.40;99.40;;;;;;4975130;28;20084;-66
2023/04/06 10:08:56;;;;;;;25.30;17.10;;;10.30;98.60;;;;;;4991737;28;20083;-65
2023/04/06 10:11:22;;;;;;;27.25;17.42;;;10.30;98.60;;;;;;4990684;28;20037;-66
2023/04/06 10:13:48;;;;;;;25.63;16.80;;;10.40;97.60;;;;;;4975619;28;20165;-66
2023/04/06 10:16:15;;;;;;;26.23;16.50;;;10.40;97.50;;;;;;4998603;28;20045;-64
2023/04/06 10:18:47;;;;;;;27.10;17.35;;;10.40;97.50;;;;;;4990313;28;20038;-66
2023/04/06 10:21:19;;;;;;;28.35;16.98;;;10.40;98.10;;;;;;4987822;28;20121;-66
2023/04/06 10:23:59;;;;;;;28.33;16.73;;;10.40;97.90;;;;;;4989881;28;20091;-64
2023/04/06 10:26:24;;;;;;;25.60;17.10;;;10.50;97.00;;;;;;4989093;28;20286;-64
2023/04/06 10:28:50;;;;;;;26.85;17.13;;;10.60;97.50;;;;;;4988748;28;20095;-66
2023/04/06 10:31:27;;;;;;;27.63;17.17;;;10.60;97.30;;;;;;4978930;28;20189;-65
2023/04/06 10:34:01;;;;;;;27.50;16.20;;;10.60;97.40;;;;;;4991482;28;20046;-65
2023/04/06 10:36:33;;;;;;;27.45;17.67;;;10.70;97.20;;;;;;4990948;28;20050;-64
2023/04/06 10:39:02;;;;;;;27.58;17.73;;;10.70;97.00;;;;;;4991616;28;20039;-66
2023/04/06 10:41:42;;;;;;;29.08;18.00;;;10.90;96.50;;;;;;4973724;28;20050;-66
2023/04/06 10:44:07;;;;;;;27.00;17.08;;;10.90;96.60;;;;;;4998792;28;20042;-66
2023/04/06 10:46:33;;;;;;;28.52;18.25;;;11.00;96.40;;;;;;4989580;28;20080;-63
2023/04/06 10:49:11;;;;;;;30.45;16.67;;;11.10;96.50;;;;;;4973714;28;20061;-64
2023/04/06 10:51:39;;;;;;;28.02;17.52;;;11.30;96.80;;;;;;4991075;28;20126;-65
2023/04/06 10:54:06;;;;;;;25.67;17.67;;;11.40;96.90;;;;;;4991642;28;20117;-67
2023/04/06 10:56:34;;;;;;;28.90;18.42;;;11.50;96.10;;;;;;4999192;28;20042;-65
2023/04/06 10:59:00;;;;;;;31.50;18.98;;;11.50;94.20;;;;;;4979168;28;20049;-67
2023/04/06 11:01:27;;;;;;;29.52;18.42;;;11.60;94.70;;;;;;4978630;28;20051;-66
2023/04/06 11:03:55;;;;;;;28.92;18.88;;;11.70;94.40;;;;;;4999069;28;20129;-67
2023/04/06 11:06:22;;;;;;;35.45;19.67;;;11.70;93.90;;;;;;4979380;28;20192;-66
2023/04/06 11:08:48;;;;;;;31.40;19.63;;;11.70;93.40;;;;;;4991805;28;20046;-67
2023/04/06 11:11:17;;;;;;;27.48;19.33;;;11.80;93.10;;;;;;4970107;28;20039;-65
2023/04/06 11:13:44;;;;;;;31.75;18.55;;;11.80;93.20;;;;;;4990061;28;20607;-64
2023/04/06 11:16:14;;;;;;;26.63;17.33;;;11.80;93.40;;;;;;4975163;28;20050;-65
2023/04/06 11:19:01;;;;;;;30.05;17.98;;;11.90;92.50;;;;;;4992006;28;20042;-62
2023/04/06 11:21:36;;;;;;;28.65;18.38;;;11.90;92.50;;;;;;4988047;28;20443;-65
2023/04/06 11:24:20;;;;;;;31.88;19.08;;;12.00;92.60;;;;;;4973676;28;20053;-63
2023/04/06 11:26:48;;;;;;;28.50;18.83;;;12.10;91.50;;;;;;4972858;28;20042;-65
2023/04/06 11:29:16;;;;;;;29.80;19.67;;;12.20;91.70;;;;;;4991466;28;20500;-65
2023/04/06 11:31:49;;;;;;;29.08;18.77;;;12.20;91.60;;;;;;4991540;28;20043;-65
2023/04/06 11:34:21;;;;;;;32.65;19.30;;;12.30;91.20;;;;;;4990426;28;20043;-64
2023/04/06 11:36:48;;;;;;;29.10;18.60;;;12.50;90.40;;;;;;4990965;28;20520;-62
2023/04/06 11:39:26;;;;;;;30.33;18.30;;;12.60;90.30;;;;;;4991516;28;20045;-65
2023/04/06 11:42:00;;;;;;;29.38;18.85;;;12.60;90.10;;;;;;4993194;28;20046;-64
2023/04/06 11:44:33;;;;;;;31.63;19.50;;;12.60;90.40;;;;;;4996402;28;20037;-64
2023/04/06 11:47:04;;;;;;;29.40;19.30;;;12.60;89.80;;;;;;4983177;28;20460;-65
2023/04/06 11:49:31;;;;;;;28.05;19.70;;;12.60;88.70;;;;;;4973825;28;20393;-65
2023/04/06 11:52:00;;;;;;;29.33;19.48;;;12.50;88.60;;;;;;4983189;28;20070;-65
2023/04/06 11:54:37;;;;;;;30.00;19.85;;;12.40;89.30;;;;;;4972575;28;20042;-64
2023/04/06 11:57:04;;;;;;;28.33;18.73;;;12.40;88.20;;;;;;4985684;28;20054;-65
2023/04/06 11:59:30;;;;;;;27.88;19.52;;;12.30;89.00;;;;;;4989711;28;20497;-65
2023/04/06 12:02:03;;;;;;;29.05;18.00;;;12.30;89.50;;;;;;4991052;28;20038;-65
2023/04/06 12:04:29;;;;;;;28.50;18.38;;;12.30;88.40;;;;;;4997144;28;20521;-64
2023/04/06 12:06:55;;;;;;;28.52;18.27;;;12.40;88.30;;;;;;4973255;28;20246;-65
2023/04/06 12:09:21;;;;;;;28.00;17.90;;;12.50;88.90;;;;;;4973954;28;20077;-65
2023/04/06 12:11:47;;;;;;;27.23;17.27;;;12.60;88.50;;;;;;4990850;28;20034;-65
2023/04/06 12:14:13;;;;;;;30.90;17.73;;;12.60;87.20;;;;;;4988600;28;20515;-65
2023/04/06 12:16:38;;;;;;;27.60;16.42;;;12.50;86.80;;;;;;4990759;28;20043;-64
2023/04/06 12:19:05;;;;;;;30.92;18.23;;;12.50;87.20;;;;;;4991176;28;20508;-65
2023/04/06 12:21:31;;;;;;;27.77;18.10;;;12.40;87.50;;;;;;4991107;28;20089;-65
2023/04/06 12:24:00;;;;;;;28.30;17.25;;;12.20;87.50;;;;;;4990728;28;20129;-64
2023/04/06 12:26:26;;;;;;;27.02;18.10;;;12.20;88.20;;;;;;4990658;28;20041;-61
2023/04/06 12:28:54;;;;;;;28.83;18.92;;;12.10;89.00;;;;;;4985496;28;20045;-65
2023/04/06 12:31:21;;;;;;;29.77;17.23;;;12.10;90.10;;;;;;4990786;28;20100;-64
2023/04/06 12:33:51;;;;;;;27.42;17.08;;;12.00;90.70;;;;;;4990618;28;20073;-65
2023/04/06 12:36:19;;;;;;;25.88;16.75;;;12.00;90.80;;;;;;4990060;28;20097;-65